createdAt,value
2022-11-24T00:03:00.625Z,99401.88
2022-11-24T00:06:07.675Z,99402.84
2022-11-24T00:09:10.460Z,99401.97
2022-11-24T00:12:13.211Z,99401.16
2022-11-24T00:15:15.403Z,99398.63
2022-11-24T00:18:17.902Z,99398.75
2022-11-24T00:21:20.795Z,99402.06
2022-11-24T00:24:23.272Z,99405.44
2022-11-24T00:27:25.489Z,99402.00
2022-11-24T00:30:28.791Z,99413.38
2022-11-24T00:33:31.124Z,99413.34
2022-11-24T00:36:34.827Z,99420.22
2022-11-24T00:39:37.095Z,99421.81
2022-11-24T00:42:39.705Z,99421.06
2022-11-24T00:45:42.647Z,99420.97
2022-11-24T00:48:46.259Z,99426.12
2022-11-24T00:51:48.437Z,99436.53
2022-11-24T00:54:50.918Z,99433.97
2022-11-24T00:57:53.152Z,99439.19
2022-11-24T01:00:56.259Z,99445.16
2022-11-24T01:04:01.341Z,99440.72
2022-11-24T01:07:03.872Z,99445.88
2022-11-24T01:10:06.412Z,99433.84
2022-11-24T01:13:08.896Z,99442.38
2022-11-24T01:16:18.938Z,99439.91
2022-11-24T01:19:22.242Z,99446.84
2022-11-24T01:22:26.409Z,99446.00
2022-11-24T01:25:28.859Z,99448.69
2022-11-24T01:28:31.312Z,99452.00
2022-11-24T01:31:34.278Z,99451.16
2022-11-24T01:34:37.537Z,99448.59
2022-11-24T01:37:40.025Z,99456.44
2022-11-24T01:40:42.237Z,99452.06
2022-11-24T01:43:45.050Z,99452.09
2022-11-24T01:46:48.819Z,99460.84
2022-11-24T01:49:55.785Z,99455.62
2022-11-24T01:52:58.481Z,99461.66
2022-11-24T01:56:01.077Z,99459.06
2022-11-24T01:59:05.009Z,99465.81
2022-11-24T02:02:07.948Z,99464.09
2022-11-24T02:05:13.216Z,99462.34
2022-11-24T02:08:26.011Z,99460.69
2022-11-24T02:11:29.478Z,99464.22
2022-11-24T02:14:34.554Z,99463.34
2022-11-24T02:17:37.303Z,99460.69
2022-11-24T02:20:39.936Z,99460.69
2022-11-24T02:23:45.178Z,99467.53
2022-11-24T02:26:48.762Z,99464.16
2022-11-24T02:29:51.362Z,99462.44
2022-11-24T02:32:54.245Z,99473.66
2022-11-24T02:35:56.566Z,99465.09
2022-11-24T02:38:59.088Z,99467.59
2022-11-24T02:42:08.113Z,99464.31
2022-11-24T02:45:11.383Z,99469.50
2022-11-24T02:48:14.230Z,99468.81
2022-11-24T02:51:17.189Z,99468.72
2022-11-24T02:54:19.935Z,99472.22
2022-11-24T02:57:23.166Z,99465.44
2022-11-24T03:00:25.348Z,99473.25
2022-11-24T03:03:27.904Z,99472.47
2022-11-24T03:06:30.076Z,99473.38
2022-11-24T03:09:32.984Z,99473.50
2022-11-24T03:12:35.584Z,99471.03
2022-11-24T03:15:38.155Z,99475.25
2022-11-24T03:18:40.563Z,99483.84
2022-11-24T03:21:43.018Z,99478.69
2022-11-24T03:24:45.251Z,99482.25
2022-11-24T03:27:47.812Z,99487.47
2022-11-24T03:30:50.245Z,99483.91
2022-11-24T03:33:52.781Z,99501.12
2022-11-24T03:36:55.025Z,99496.00
2022-11-24T03:39:57.536Z,99499.47
2022-11-24T03:42:59.713Z,99497.75
2022-11-24T03:46:02.200Z,99509.78
2022-11-24T03:49:04.548Z,99500.50
2022-11-24T03:52:08.356Z,99513.28
2022-11-24T03:55:10.664Z,99511.72
2022-11-24T03:58:13.163Z,99512.53
2022-11-24T04:01:15.400Z,99509.16
2022-11-24T04:04:18.136Z,99514.41
2022-11-24T04:07:20.367Z,99510.97
2022-11-24T04:10:24.514Z,99522.19
2022-11-24T04:13:27.115Z,99518.81
2022-11-24T04:16:29.623Z,99516.34
2022-11-24T04:19:31.856Z,99525.84
2022-11-24T04:22:35.184Z,99522.41
2022-11-24T04:25:37.493Z,99532.72
2022-11-24T04:28:39.997Z,99528.47
2022-11-24T04:31:42.261Z,99532.72
2022-11-24T04:34:44.867Z,99537.97
2022-11-24T04:37:47.081Z,99545.03
2022-11-24T04:40:49.575Z,99545.19
2022-11-24T04:43:51.770Z,99544.28
2022-11-24T04:46:54.478Z,99542.91
2022-11-24T04:49:56.792Z,99556.69
2022-11-24T04:52:59.265Z,99553.16
2022-11-24T04:56:04.593Z,99560.94
2022-11-24T04:59:08.570Z,99553.94
2022-11-24T05:02:11.681Z,99567.94
2022-11-24T05:05:14.222Z,99570.56
2022-11-24T05:08:16.430Z,99569.00
2022-11-24T05:11:19.272Z,99575.03
2022-11-24T05:14:21.430Z,99580.19
2022-11-24T05:17:24.022Z,99588.75
2022-11-24T05:20:26.398Z,99593.97
2022-11-24T05:23:28.913Z,99600.84
2022-11-24T05:26:31.156Z,99593.06
2022-11-24T05:29:33.685Z,99603.34
2022-11-24T05:32:35.891Z,99599.00
2022-11-24T05:35:38.681Z,99604.00
2022-11-24T05:38:41.325Z,99609.91
2022-11-24T05:41:43.706Z,99604.66
2022-11-24T05:44:46.010Z,99613.13
2022-11-24T05:47:49.402Z,99621.59
2022-11-24T05:50:58.511Z,99626.75
2022-11-24T05:54:00.936Z,99621.59
2022-11-24T05:57:03.309Z,99631.88
2022-11-24T06:00:07.237Z,99631.88
2022-11-24T06:03:14.606Z,99638.66
2022-11-24T06:06:17.293Z,99634.16
2022-11-24T06:09:19.657Z,99637.59
2022-11-24T06:12:22.250Z,99633.22
2022-11-24T06:15:24.542Z,99642.66
2022-11-24T06:18:27.042Z,99650.37
2022-11-24T06:21:29.329Z,99653.69
2022-11-24T06:24:32.047Z,99660.56
2022-11-24T06:27:34.570Z,99657.09
2022-11-24T06:30:38.184Z,99665.53
2022-11-24T06:33:40.459Z,99668.97
2022-11-24T06:36:42.992Z,99668.84
2022-11-24T06:39:45.229Z,99678.41
2022-11-24T06:42:51.647Z,99673.19
2022-11-24T06:45:53.979Z,99680.78
2022-11-24T06:48:56.926Z,99676.44
2022-11-24T06:51:59.369Z,99682.50
2022-11-24T06:55:01.962Z,99678.03
2022-11-24T06:58:04.449Z,99683.94
2022-11-24T07:01:07.058Z,99694.22
2022-11-24T07:04:10.323Z,99707.91
2022-11-24T07:07:12.968Z,99706.88
2022-11-24T07:10:15.390Z,99705.13
2022-11-24T07:13:18.407Z,99715.38
2022-11-24T07:16:22.280Z,99718.00
2022-11-24T07:19:25.346Z,99718.87
2022-11-24T07:22:28.129Z,99713.75
2022-11-24T07:25:30.697Z,99718.84
2022-11-24T07:28:33.583Z,99721.31
2022-11-24T07:31:36.149Z,99734.13
2022-11-24T07:34:38.459Z,99740.94
2022-11-24T07:37:41.005Z,99740.84
2022-11-24T07:40:43.270Z,99741.59
2022-11-24T07:43:46.182Z,99745.62
2022-11-24T07:46:51.244Z,99742.94
2022-11-24T07:49:53.676Z,99748.72
2022-11-24T07:52:55.920Z,99745.34
2022-11-24T07:56:02.551Z,99747.97
2022-11-24T07:59:04.851Z,99743.53
2022-11-24T08:02:07.512Z,99753.72
2022-11-24T08:05:10.068Z,99759.69
2022-11-24T08:08:12.450Z,99757.97
2022-11-24T08:11:16.131Z,99762.38
2022-11-24T08:14:18.362Z,99762.16
2022-11-24T08:17:21.201Z,99773.28
2022-11-24T08:20:23.448Z,99769.66
2022-11-24T08:23:26.254Z,99775.84
2022-11-24T08:26:28.500Z,99774.03
2022-11-24T08:29:31.510Z,99779.94
2022-11-24T08:32:33.868Z,99778.91
2022-11-24T08:35:37.962Z,99778.75
2022-11-24T08:38:40.322Z,99785.63
2022-11-24T08:41:42.754Z,99791.59
2022-11-24T08:44:44.980Z,99790.38
2022-11-24T08:47:51.100Z,99788.63
2022-11-24T08:50:53.412Z,99795.47
2022-11-24T08:53:56.806Z,99803.28
2022-11-24T08:56:58.985Z,99802.47
2022-11-24T09:00:01.701Z,99800.66
2022-11-24T09:03:04.001Z,99801.25
2022-11-24T09:06:07.179Z,99815.00
2022-11-24T09:09:09.756Z,99805.44
2022-11-24T09:12:14.661Z,99807.41
2022-11-24T09:15:18.964Z,99810.91
2022-11-24T09:18:25.186Z,99816.00
2022-11-24T09:21:30.226Z,99821.84
2022-11-24T09:24:32.917Z,99820.56
2022-11-24T09:27:35.511Z,99821.38
2022-11-24T09:30:38.720Z,99818.47
2022-11-24T09:33:41.509Z,99823.25
2022-11-24T09:36:44.079Z,99809.84
2022-11-24T09:39:46.426Z,99817.06
2022-11-24T09:42:58.142Z,99819.41
2022-11-24T09:46:06.042Z,99814.53
2022-11-24T09:49:15.685Z,99813.09
2022-11-24T09:52:33.216Z,99811.81
2022-11-24T09:55:52.126Z,99815.75
2022-11-24T09:58:57.640Z,99818.13
2022-11-24T10:02:00.280Z,99814.19
2022-11-24T10:05:02.898Z,99824.69
2022-11-24T10:08:20.441Z,99829.22
2022-11-24T10:11:30.939Z,99821.88
2022-11-24T10:14:45.049Z,99819.91
2022-11-24T10:17:47.532Z,99822.91
2022-11-24T10:20:58.885Z,99816.94
2022-11-24T10:24:22.404Z,99827.50
2022-11-24T10:27:39.892Z,99821.78
2022-11-24T10:30:43.424Z,99835.75
2022-11-24T10:33:46.094Z,99820.09
2022-11-24T10:36:57.848Z,99838.84
2022-11-24T10:40:17.193Z,99831.09
2022-11-24T10:43:31.840Z,99835.38
2022-11-24T10:46:39.187Z,99844.88
2022-11-24T10:49:43.693Z,99846.47
2022-11-24T10:53:08.901Z,99847.28
2022-11-24T10:56:11.442Z,99838.53
2022-11-24T10:59:34.529Z,99846.81
2022-11-24T11:02:38.831Z,99857.88
2022-11-24T11:05:43.679Z,99851.75
2022-11-24T11:08:46.253Z,99853.53
2022-11-24T11:11:49.192Z,99853.19
2022-11-24T11:14:51.705Z,99859.84
2022-11-24T11:17:57.408Z,99856.84
2022-11-24T11:21:02.537Z,99864.41
2022-11-24T11:24:15.211Z,99871.97
2022-11-24T11:27:19.254Z,99874.72
2022-11-24T11:34:03.437Z,99876.00
2022-11-24T11:37:07.270Z,99876.84
2022-11-24T11:40:17.935Z,99877.63
2022-11-24T11:43:20.227Z,99879.03
2022-11-24T11:46:24.443Z,99884.94
2022-11-24T11:49:26.687Z,99884.28
2022-11-24T11:52:58.564Z,99873.94
2022-11-24T11:56:06.891Z,99878.81
2022-11-24T11:59:12.918Z,99874.94
2022-11-24T12:02:33.948Z,99881.75
2022-11-24T12:05:55.529Z,99884.41
2022-11-24T12:09:20.359Z,99876.72
2022-11-24T12:12:39.826Z,99878.28
2022-11-24T12:15:48.112Z,99882.38
2022-11-24T12:18:58.272Z,99880.31
2022-11-24T12:22:11.114Z,99880.72
2022-11-24T12:25:16.796Z,99882.56
2022-11-24T12:28:38.047Z,99882.00
2022-11-24T12:31:43.541Z,99889.66
2022-11-24T12:34:58.117Z,99895.75
2022-11-24T12:38:00.616Z,99898.94
2022-11-24T12:41:39.660Z,99899.97
2022-11-24T12:44:50.273Z,99903.56
2022-11-24T12:48:05.875Z,99904.47
2022-11-24T12:51:15.028Z,99901.16
2022-11-24T12:54:18.941Z,99909.91
2022-11-24T12:57:28.013Z,99907.38
2022-11-24T13:00:50.719Z,99903.91
2022-11-24T13:03:53.246Z,99902.00
2022-11-24T13:07:09.914Z,99910.78
2022-11-24T13:10:40.492Z,99912.47
2022-11-24T13:14:19.490Z,99915.72
2022-11-24T13:17:32.348Z,99914.50
2022-11-24T13:20:42.522Z,99919.44
2022-11-24T13:23:56.083Z,99931.28
2022-11-24T13:27:13.916Z,99918.06
2022-11-24T13:30:34.682Z,99922.34
2022-11-24T13:33:37.675Z,99925.81
2022-11-24T13:36:51.979Z,99921.25
2022-11-24T13:39:54.203Z,99924.87
2022-11-24T13:43:02.223Z,99934.25
2022-11-24T13:46:04.597Z,99934.03
2022-11-24T13:49:13.389Z,99946.97
2022-11-24T13:52:34.223Z,99936.69
2022-11-24T13:55:38.891Z,99944.50
2022-11-24T13:58:42.891Z,99949.81
2022-11-24T14:01:46.871Z,99938.59
2022-11-24T14:04:50.392Z,99944.72
2022-11-24T14:07:53.243Z,99949.88
2022-11-24T14:10:57.384Z,99955.16
2022-11-24T14:14:14.686Z,99957.75
2022-11-24T14:17:20.081Z,99952.47
2022-11-24T14:20:23.949Z,99964.59
2022-11-24T14:23:26.807Z,99968.13
2022-11-24T14:26:33.542Z,99963.06
2022-11-24T14:29:36.005Z,99969.16
2022-11-24T14:32:38.421Z,99961.47
2022-11-24T14:35:44.987Z,99954.69
2022-11-24T14:38:47.642Z,99964.19
2022-11-24T14:41:52.898Z,99975.56
2022-11-24T14:44:55.719Z,99972.19
2022-11-24T14:47:58.252Z,99973.09
2022-11-24T14:51:15.526Z,99986.00
2022-11-24T14:54:19.381Z,99996.41
2022-11-24T14:57:31.660Z,99996.41
2022-11-24T15:00:34.412Z,100006.87
2022-11-24T15:03:37.064Z,100008.66
2022-11-24T15:06:40.969Z,100021.75
2022-11-24T15:09:51.915Z,100028.75
2022-11-24T15:12:57.206Z,100021.94
2022-11-24T15:16:03.138Z,100027.19
2022-11-24T15:19:08.026Z,100034.09
2022-11-24T15:22:29.329Z,100028.16
2022-11-24T15:25:33.626Z,100029.94
2022-11-24T15:28:36.269Z,100034.38
2022-11-24T15:31:39.790Z,100034.38
2022-11-24T15:34:42.033Z,100033.47
2022-11-24T15:37:44.522Z,100028.41
2022-11-24T15:40:48.080Z,100036.31
2022-11-24T15:43:50.634Z,100031.19
2022-11-24T15:46:55.302Z,100034.75
2022-11-24T15:49:58.025Z,100042.69
2022-11-24T15:53:00.399Z,100040.16
2022-11-24T15:56:03.558Z,100038.62
2022-11-24T15:59:05.812Z,100037.78
2022-11-24T16:02:09.199Z,100042.31
2022-11-24T16:05:12.695Z,100047.66
2022-11-24T16:08:16.041Z,100051.06
2022-11-24T16:11:18.560Z,100050.28
2022-11-24T16:14:20.877Z,100051.09
2022-11-24T16:17:23.435Z,100047.81
2022-11-24T16:20:26.053Z,100054.81
2022-11-24T16:23:28.744Z,100047.13
2022-11-24T16:26:30.975Z,100063.28
2022-11-24T16:29:38.200Z,100049.63
2022-11-24T16:32:41.018Z,100058.34
2022-11-24T16:35:46.234Z,100059.34
2022-11-24T16:38:48.518Z,100069.66
2022-11-24T16:41:51.096Z,100063.66
2022-11-24T16:44:53.329Z,100076.62
2022-11-24T16:47:55.769Z,100078.44
2022-11-24T16:51:04.711Z,100083.59
2022-11-24T16:54:07.311Z,100078.50
2022-11-24T16:57:14.951Z,100089.03
2022-11-24T17:00:17.962Z,100082.78
2022-11-24T17:03:20.371Z,100083.72
2022-11-24T17:06:23.592Z,100084.63
2022-11-24T17:09:25.793Z,100094.19
2022-11-24T17:12:28.373Z,100100.28
2022-11-24T17:15:35.547Z,100102.97
2022-11-24T17:18:40.640Z,100101.22
2022-11-24T17:21:42.858Z,100107.38
2022-11-24T17:24:45.403Z,100112.75
2022-11-24T17:27:47.604Z,100110.09
2022-11-24T17:30:50.177Z,100117.81
2022-11-24T17:33:53.076Z,100117.84
2022-11-24T17:36:55.685Z,100113.66
2022-11-24T17:40:26.317Z,100122.25
2022-11-24T17:43:20.520Z,100129.97
2022-11-24T17:46:23.844Z,100128.47
2022-11-24T17:49:26.683Z,100137.94
2022-11-24T17:52:29.475Z,100143.19
2022-11-24T17:55:31.987Z,100153.56
2022-11-24T17:58:39.690Z,100156.25
2022-11-24T18:01:45.214Z,100157.09
2022-11-24T18:04:47.744Z,100173.38
2022-11-24T18:07:50.003Z,100169.19
2022-11-24T18:10:52.637Z,100176.16
2022-11-24T18:14:00.310Z,100182.25
2022-11-24T18:17:03.887Z,100177.91
2022-11-24T18:20:06.601Z,100182.16
2022-11-24T18:23:09.166Z,100188.19
2022-11-24T18:26:13.047Z,100185.56
2022-11-24T18:29:15.590Z,100191.56
2022-11-24T18:32:18.009Z,100196.72
2022-11-24T18:35:20.546Z,100201.06
2022-11-24T18:38:23.081Z,100205.38
2022-11-24T18:41:25.692Z,100202.84
2022-11-24T18:44:32.887Z,100209.78
2022-11-24T18:47:35.534Z,100220.13
2022-11-24T18:50:37.773Z,100215.03
2022-11-24T18:53:41.040Z,100227.94
2022-11-24T18:56:43.310Z,100226.25
2022-11-24T18:59:45.861Z,100231.44
2022-11-24T19:02:51.549Z,100223.78
2022-11-24T19:05:54.126Z,100236.66
2022-11-24T19:08:57.149Z,100230.63
2022-11-24T19:12:00.061Z,100233.19
2022-11-24T19:15:02.357Z,100235.88
2022-11-24T19:18:05.573Z,100240.19
2022-11-24T19:21:07.878Z,100244.53
2022-11-24T19:24:10.724Z,100244.53
2022-11-24T19:27:14.424Z,100252.31
2022-11-24T19:30:17.219Z,100266.97
2022-11-24T19:33:21.503Z,100270.41
2022-11-24T19:36:24.228Z,100271.28
2022-11-24T19:39:26.468Z,100266.12
2022-11-24T19:42:28.980Z,100273.97
2022-11-24T19:45:32.678Z,100268.06
2022-11-24T19:48:37.132Z,100278.31
2022-11-24T19:51:39.833Z,100273.16
2022-11-24T19:54:42.443Z,100281.69
2022-11-24T19:57:44.802Z,100286.84
2022-11-24T20:00:47.512Z,100295.47
2022-11-24T20:03:55.112Z,100301.53
2022-11-24T20:06:57.369Z,100301.53
2022-11-24T20:10:06.017Z,100300.69
2022-11-24T20:13:10.821Z,100308.44
2022-11-24T20:16:20.519Z,100316.16
2022-11-24T20:19:22.862Z,100320.47
2022-11-24T20:22:25.395Z,100321.31
2022-11-24T20:25:27.774Z,100322.16
2022-11-24T20:28:30.551Z,100329.91
2022-11-24T20:31:38.031Z,100338.50
2022-11-24T20:34:40.607Z,100345.41
2022-11-24T20:37:43.063Z,100348.81
2022-11-24T20:40:45.634Z,100358.22
2022-11-24T20:43:48.295Z,100357.34
2022-11-24T20:46:50.900Z,100357.28
2022-11-24T20:49:53.049Z,100358.13
2022-11-24T20:52:55.575Z,100359.00
2022-11-24T20:56:06.409Z,100357.34
2022-11-24T20:59:11.826Z,100366.75
2022-11-24T21:02:13.975Z,100366.75
2022-11-24T21:05:16.616Z,100370.16
2022-11-24T21:08:19.343Z,100374.50
2022-11-24T21:11:22.724Z,100371.12
2022-11-24T21:14:25.361Z,100371.97
2022-11-24T21:17:27.857Z,100377.94
2022-11-24T21:20:30.326Z,100377.91
2022-11-24T21:23:32.911Z,100385.53
2022-11-24T21:26:36.861Z,100380.34
2022-11-24T21:29:39.475Z,100377.84
2022-11-24T21:32:41.889Z,100387.28
2022-11-24T21:35:44.433Z,100388.22
2022-11-24T21:38:50.734Z,100392.50
2022-11-24T21:41:53.339Z,100390.75
2022-11-24T21:44:55.617Z,100383.03
2022-11-24T21:47:59.307Z,100388.19
2022-11-24T21:51:02.523Z,100388.12
2022-11-24T21:54:05.616Z,100391.56
2022-11-24T21:57:07.849Z,100389.87
2022-11-24T22:00:10.861Z,100389.87
2022-11-24T22:03:13.336Z,100395.06
2022-11-24T22:06:16.600Z,100386.56
2022-11-24T22:09:19.228Z,100395.06
2022-11-24T22:12:21.506Z,100394.25
2022-11-24T22:15:24.073Z,100412.25
2022-11-24T22:18:26.401Z,100410.53
2022-11-24T22:21:33.489Z,100413.13
2022-11-24T22:24:35.662Z,100406.31
2022-11-24T22:27:38.172Z,100403.72
2022-11-24T22:30:40.485Z,100414.81
2022-11-24T22:33:45.959Z,100424.19
2022-11-24T22:36:48.218Z,100427.56
2022-11-24T22:39:50.958Z,100425.88
2022-11-24T22:42:53.187Z,100436.16
2022-11-24T22:45:55.677Z,100439.63
2022-11-24T22:48:59.147Z,100432.78
2022-11-24T22:52:01.657Z,100442.22
2022-11-24T22:55:04.023Z,100438.75
2022-11-24T22:58:06.650Z,100446.50
2022-11-24T23:01:11.202Z,100448.25
2022-11-24T23:04:13.778Z,100442.28
2022-11-24T23:07:16.089Z,100447.41
2022-11-24T23:10:21.732Z,100447.44
2022-11-24T23:13:23.950Z,100448.28
2022-11-24T23:16:26.787Z,100450.00
2022-11-24T23:19:29.080Z,100459.41
2022-11-24T23:22:31.931Z,100455.94
2022-11-24T23:25:34.356Z,100464.53
2022-11-24T23:28:36.977Z,100463.63
2022-11-24T23:31:42.351Z,100463.63
2022-11-24T23:34:45.715Z,100471.34
2022-11-24T23:38:08.207Z,100468.72
2022-11-24T23:41:12.681Z,100467.87
2022-11-24T23:44:15.400Z,100475.62
2022-11-24T23:47:17.900Z,100472.22
2022-11-24T23:50:20.174Z,100476.50
2022-11-24T23:53:22.702Z,100473.91
2022-11-24T23:56:33.783Z,100474.78
2022-11-24T23:59:36.342Z,100472.25
